createdAt,value
2022-10-24T00:02:13.840Z,16.90
2022-10-24T00:04:42.032Z,17.00
2022-10-24T00:07:15.180Z,17.00
2022-10-24T00:09:42.152Z,17.10
2022-10-24T00:12:10.488Z,17.10
2022-10-24T00:14:43.426Z,17.10
2022-10-24T00:17:13.415Z,17.20
2022-10-24T00:19:40.336Z,17.20
2022-10-24T00:22:07.321Z,17.10
2022-10-24T00:24:37.275Z,17.20
2022-10-24T00:27:07.191Z,17.20
2022-10-24T00:29:37.175Z,17.20
2022-10-24T00:32:10.264Z,17.20
2022-10-24T00:34:39.267Z,17.10
2022-10-24T00:37:09.352Z,17.10
2022-10-24T00:39:39.370Z,17.00
2022-10-24T00:42:08.414Z,17.00
2022-10-24T00:44:39.322Z,17.00
2022-10-24T00:47:10.604Z,17.00
2022-10-24T00:49:48.297Z,17.00
2022-10-24T00:52:20.588Z,17.00
2022-10-24T00:54:48.106Z,17.00
2022-10-24T00:57:44.843Z,17.00
2022-10-24T01:00:22.775Z,17.10
2022-10-24T01:02:50.936Z,17.10
2022-10-24T01:05:23.981Z,17.10
2022-10-24T01:08:17.709Z,17.10
2022-10-24T01:10:46.598Z,17.10
2022-10-24T01:13:19.495Z,17.00
2022-10-24T01:16:04.903Z,17.00
2022-10-24T01:21:41.348Z,17.00
2022-10-24T01:24:31.711Z,17.00
2022-10-24T01:27:47.885Z,17.00
2022-10-24T01:30:17.353Z,17.00
2022-10-24T01:33:10.753Z,17.00
2022-10-24T01:36:11.076Z,17.00
2022-10-24T01:38:57.720Z,17.00
2022-10-24T01:41:29.175Z,17.00
2022-10-24T01:44:06.991Z,17.00
2022-10-24T01:46:38.315Z,17.00
2022-10-24T01:49:18.269Z,17.00
2022-10-24T01:51:48.975Z,16.90
2022-10-24T01:54:16.465Z,16.90
2022-10-24T01:56:43.508Z,16.90
2022-10-24T01:59:29.011Z,16.90
2022-10-24T02:02:06.317Z,16.90
2022-10-24T02:04:35.541Z,16.90
2022-10-24T02:07:08.636Z,16.90
2022-10-24T02:09:39.031Z,16.90
2022-10-24T02:12:09.928Z,16.90
2022-10-24T02:14:47.776Z,16.90
2022-10-24T02:17:15.230Z,16.80
2022-10-24T02:19:43.209Z,16.80
2022-10-24T02:22:41.068Z,16.70
2022-10-24T02:25:17.973Z,16.70
2022-10-24T02:28:16.780Z,16.70
2022-10-24T02:31:04.607Z,16.70
2022-10-24T02:33:38.212Z,16.60
2022-10-24T02:36:15.722Z,16.60
2022-10-24T02:38:46.607Z,16.60
2022-10-24T02:41:32.463Z,16.50
2022-10-24T02:44:03.910Z,16.50
2022-10-24T02:46:32.528Z,16.40
2022-10-24T02:49:04.209Z,16.40
2022-10-24T02:51:39.462Z,16.40
2022-10-24T02:54:08.513Z,16.30
2022-10-24T02:56:43.934Z,16.30
2022-10-24T02:59:12.894Z,16.30
2022-10-24T03:01:41.002Z,16.30
2022-10-24T03:04:11.130Z,16.40
2022-10-24T03:06:38.168Z,16.40
2022-10-24T03:09:07.096Z,16.40
2022-10-24T03:11:34.520Z,16.40
2022-10-24T03:14:02.742Z,16.40
2022-10-24T03:16:32.963Z,16.40
2022-10-24T03:19:02.980Z,16.40
2022-10-24T03:21:33.024Z,16.40
2022-10-24T03:24:03.048Z,16.50
2022-10-24T03:26:32.119Z,16.50
2022-10-24T03:29:01.254Z,16.50
2022-10-24T03:31:31.756Z,16.50
2022-10-24T03:34:01.778Z,16.50
2022-10-24T03:36:30.722Z,16.50
2022-10-24T03:39:04.310Z,16.50
2022-10-24T03:41:34.340Z,16.50
2022-10-24T03:44:02.560Z,16.50
2022-10-24T03:46:32.585Z,16.50
2022-10-24T03:51:30.451Z,16.60
2022-10-24T03:54:00.483Z,16.50
2022-10-24T03:56:30.455Z,16.50
2022-10-24T03:59:00.627Z,16.50
2022-10-24T04:01:27.684Z,16.50
2022-10-24T04:03:57.831Z,16.40
2022-10-24T04:06:24.671Z,16.50
2022-10-24T04:08:51.595Z,16.50
2022-10-24T04:11:21.549Z,16.50
2022-10-24T04:13:52.660Z,16.50
2022-10-24T04:16:24.088Z,16.50
2022-10-24T04:18:54.121Z,16.50
2022-10-24T04:21:24.200Z,16.50
2022-10-24T04:23:54.216Z,16.50
2022-10-24T04:26:21.138Z,16.40
2022-10-24T04:28:54.048Z,16.40
2022-10-24T04:31:24.047Z,16.40
2022-10-24T04:33:54.089Z,16.40
2022-10-24T04:36:21.282Z,16.40
2022-10-24T04:38:51.329Z,16.40
2022-10-24T04:41:19.304Z,16.40
2022-10-24T04:43:48.336Z,16.40
2022-10-24T04:46:21.255Z,16.40
2022-10-24T04:48:48.202Z,16.40
2022-10-24T04:51:18.598Z,16.40
2022-10-24T04:54:00.676Z,16.40
2022-10-24T04:56:29.657Z,16.40
2022-10-24T04:58:58.655Z,16.40
2022-10-24T05:01:28.734Z,16.40
2022-10-24T05:03:58.899Z,16.40
2022-10-24T05:06:25.870Z,16.40
2022-10-24T05:08:52.950Z,16.40
2022-10-24T05:11:21.841Z,16.30
2022-10-24T05:13:49.686Z,16.30
2022-10-24T05:16:19.795Z,16.30
2022-10-24T05:18:49.854Z,16.30
2022-10-24T05:21:17.279Z,16.30
2022-10-24T05:23:48.280Z,16.20
2022-10-24T05:26:17.224Z,16.20
2022-10-24T05:28:51.607Z,16.10
2022-10-24T05:31:23.959Z,16.10
2022-10-24T05:33:51.929Z,16.00
2022-10-24T05:36:20.054Z,16.00
2022-10-24T05:38:49.020Z,16.00
2022-10-24T05:41:18.968Z,16.00
2022-10-24T05:43:49.040Z,16.00
2022-10-24T05:46:18.057Z,16.00
2022-10-24T05:48:47.996Z,15.90
2022-10-24T05:51:18.076Z,15.90
2022-10-24T05:53:51.071Z,15.90
2022-10-24T05:56:21.031Z,15.90
2022-10-24T05:58:47.988Z,15.90
2022-10-24T06:01:18.139Z,15.80
2022-10-24T06:03:48.083Z,15.80
2022-10-24T06:06:18.063Z,15.80
2022-10-24T06:08:48.036Z,15.80
2022-10-24T06:11:15.303Z,15.70
2022-10-24T06:13:45.272Z,15.70
2022-10-24T06:16:15.440Z,15.70
2022-10-24T06:18:45.485Z,15.70
2022-10-24T06:21:16.628Z,15.70
2022-10-24T06:23:44.602Z,15.70
2022-10-24T06:26:12.278Z,15.60
2022-10-24T06:28:42.281Z,15.60
2022-10-24T06:31:12.645Z,15.60
2022-10-24T06:33:42.701Z,15.50
2022-10-24T06:36:12.234Z,15.50
2022-10-24T06:38:42.233Z,15.50
2022-10-24T06:41:13.867Z,15.50
2022-10-24T06:43:42.521Z,15.50
2022-10-24T06:46:11.548Z,15.50
2022-10-24T06:48:38.907Z,15.50
2022-10-24T06:51:07.592Z,15.50
2022-10-24T06:53:35.893Z,15.50
2022-10-24T06:56:06.681Z,15.60
2022-10-24T06:58:35.600Z,15.60
2022-10-24T07:01:14.702Z,15.70
2022-10-24T07:03:43.291Z,15.80
2022-10-24T07:06:19.356Z,15.80
2022-10-24T07:08:46.712Z,15.70
2022-10-24T07:11:14.128Z,15.80
2022-10-24T07:13:42.065Z,15.80
2022-10-24T07:16:10.370Z,16.20
2022-10-24T07:18:43.923Z,16.50
2022-10-24T07:21:26.637Z,16.50
2022-10-24T07:23:57.379Z,16.40
2022-10-24T07:26:26.725Z,16.10
2022-10-24T07:31:32.776Z,15.70
2022-10-24T07:34:04.951Z,15.50
2022-10-24T07:36:37.757Z,15.40
2022-10-24T07:39:07.375Z,15.30
2022-10-24T07:41:37.337Z,15.20
2022-10-24T07:44:07.810Z,15.10
2022-10-24T07:46:35.804Z,15.00
2022-10-24T07:49:02.917Z,15.00
2022-10-24T07:51:30.803Z,15.00
2022-10-24T07:53:58.945Z,15.00
2022-10-24T07:56:27.292Z,15.00
2022-10-24T07:58:56.177Z,14.90
2022-10-24T08:01:25.380Z,14.90
2022-10-24T08:03:52.438Z,14.90
2022-10-24T08:06:30.113Z,15.00
2022-10-24T08:09:00.196Z,14.90
2022-10-24T08:11:28.593Z,14.90
2022-10-24T08:13:57.372Z,14.90
2022-10-24T08:16:26.049Z,14.90
2022-10-24T08:18:55.963Z,14.90
2022-10-24T08:21:25.656Z,15.00
2022-10-24T08:23:54.932Z,14.90
2022-10-24T08:26:25.204Z,14.90
2022-10-24T08:28:55.640Z,15.00
2022-10-24T08:31:26.530Z,15.00
2022-10-24T08:33:56.518Z,15.10
2022-10-24T08:36:30.424Z,15.30
2022-10-24T08:38:59.455Z,15.50
2022-10-24T08:41:57.911Z,15.50
2022-10-24T08:44:35.871Z,15.40
2022-10-24T08:47:28.679Z,15.30
2022-10-24T08:50:23.186Z,15.10
2022-10-24T08:53:18.826Z,15.10
2022-10-24T08:55:53.976Z,15.10
2022-10-24T08:58:38.049Z,15.10
2022-10-24T09:01:16.624Z,15.10
2022-10-24T09:03:56.515Z,15.00
2022-10-24T09:06:26.924Z,15.00
2022-10-24T09:08:55.248Z,14.90
2022-10-24T09:11:52.868Z,14.90
2022-10-24T09:14:19.668Z,14.90
2022-10-24T09:17:21.537Z,14.80
2022-10-24T09:19:55.293Z,14.80
2022-10-24T09:22:25.550Z,14.70
2022-10-24T09:25:05.730Z,14.80
2022-10-24T09:27:38.082Z,15.60
2022-10-24T09:30:14.788Z,16.10
2022-10-24T09:32:48.476Z,16.60
2022-10-24T09:35:22.679Z,17.40
2022-10-24T09:37:59.335Z,18.00
2022-10-24T09:40:31.719Z,19.40
2022-10-24T09:43:07.700Z,20.40
2022-10-24T09:45:46.524Z,21.30
2022-10-24T09:48:35.942Z,21.20
2022-10-24T09:51:05.396Z,20.40
2022-10-24T09:53:35.514Z,19.30
2022-10-24T09:56:11.207Z,18.50
2022-10-24T09:58:38.306Z,17.90
2022-10-24T10:01:21.152Z,17.40
2022-10-24T10:04:09.453Z,17.00
2022-10-24T10:06:45.245Z,16.60
2022-10-24T10:09:14.935Z,16.40
2022-10-24T10:12:00.737Z,16.20
2022-10-24T10:14:33.124Z,16.00
2022-10-24T10:17:07.322Z,15.80
2022-10-24T10:19:46.227Z,16.30
2022-10-24T10:22:32.038Z,17.50
2022-10-24T10:25:02.257Z,18.40
2022-10-24T10:27:40.941Z,19.00
2022-10-24T10:30:20.371Z,19.20
2022-10-24T10:33:16.035Z,19.00
2022-10-24T10:35:55.369Z,18.70
2022-10-24T10:39:02.228Z,18.70
2022-10-24T10:44:59.931Z,18.50
2022-10-24T10:47:47.234Z,18.20
2022-10-24T10:50:26.633Z,17.70
2022-10-24T10:53:03.528Z,17.30
2022-10-24T10:55:52.249Z,16.90
2022-10-24T10:58:40.718Z,16.60
2022-10-24T11:01:38.821Z,16.40
2022-10-24T11:04:33.482Z,16.30
2022-10-24T11:07:20.604Z,16.20
2022-10-24T11:09:51.361Z,16.00
2022-10-24T11:12:38.946Z,15.90
2022-10-24T11:15:21.208Z,15.90
2022-10-24T11:17:56.517Z,16.00
2022-10-24T11:20:26.530Z,16.10
2022-10-24T11:23:21.891Z,16.20
2022-10-24T11:26:06.899Z,16.40
2022-10-24T11:28:59.623Z,16.70
2022-10-24T11:31:37.064Z,16.90
2022-10-24T11:34:24.176Z,17.10
2022-10-24T11:37:24.554Z,17.10
2022-10-24T11:40:10.238Z,17.00
2022-10-24T11:42:56.553Z,17.00
2022-10-24T11:45:48.308Z,16.80
2022-10-24T11:48:37.583Z,16.70
2022-10-24T11:51:23.330Z,16.60
2022-10-24T11:54:04.683Z,16.50
2022-10-24T11:56:44.592Z,16.60
2022-10-24T11:59:27.363Z,16.80
2022-10-24T12:02:15.143Z,16.80
2022-10-24T12:04:59.090Z,16.80
2022-10-24T12:07:45.596Z,16.80
2022-10-24T12:10:35.015Z,16.70
2022-10-24T12:13:20.693Z,16.60
2022-10-24T12:15:59.527Z,16.40
2022-10-24T12:18:39.134Z,16.30
2022-10-24T12:21:14.088Z,16.20
2022-10-24T12:23:52.213Z,16.20
2022-10-24T12:26:25.214Z,16.10
2022-10-24T12:29:20.464Z,16.10
2022-10-24T12:31:50.768Z,16.00
2022-10-24T12:34:19.724Z,16.00
2022-10-24T12:37:09.602Z,16.00
2022-10-24T12:39:38.048Z,16.00
2022-10-24T12:42:20.059Z,16.00
2022-10-24T12:45:12.156Z,15.90
2022-10-24T12:48:02.030Z,15.80
2022-10-24T12:50:29.956Z,15.80
2022-10-24T12:52:57.813Z,15.80
2022-10-24T12:55:43.035Z,15.80
2022-10-24T12:58:34.216Z,15.80
2022-10-24T13:01:26.126Z,15.80
2022-10-24T13:04:24.224Z,15.80
2022-10-24T13:06:52.228Z,15.70
2022-10-24T13:09:52.361Z,15.60
2022-10-24T13:12:40.661Z,15.60
2022-10-24T13:15:17.410Z,15.60
2022-10-24T13:18:13.408Z,15.60
2022-10-24T13:20:51.972Z,15.60
2022-10-24T13:23:26.563Z,15.80
2022-10-24T13:25:58.661Z,15.90
2022-10-24T13:28:27.384Z,16.10
2022-10-24T13:31:00.324Z,16.30
2022-10-24T13:33:39.320Z,16.50
2022-10-24T13:36:27.824Z,16.80
2022-10-24T13:39:10.429Z,17.00
2022-10-24T13:41:44.731Z,17.00
2022-10-24T13:44:45.486Z,17.10
2022-10-24T13:47:50.360Z,17.30
2022-10-24T13:50:33.675Z,17.50
2022-10-24T13:53:13.705Z,17.90
2022-10-24T13:55:48.034Z,18.10
2022-10-24T13:58:19.683Z,18.30
2022-10-24T14:01:10.514Z,18.50
2022-10-24T14:03:44.181Z,18.60
2022-10-24T14:06:14.381Z,18.70
2022-10-24T14:08:59.759Z,18.70
2022-10-24T14:11:35.410Z,18.70
2022-10-24T14:14:06.076Z,18.70
2022-10-24T14:16:37.880Z,18.80
2022-10-24T14:19:21.827Z,18.90
2022-10-24T14:21:55.652Z,18.90
2022-10-24T14:24:23.443Z,18.90
2022-10-24T14:26:53.479Z,18.90
2022-10-24T14:29:31.300Z,19.00
2022-10-24T14:32:09.904Z,19.00
2022-10-24T14:34:38.958Z,19.10
2022-10-24T14:37:15.841Z,19.10
2022-10-24T14:39:45.939Z,19.00
2022-10-24T14:42:18.473Z,18.90
2022-10-24T14:44:49.717Z,18.70
2022-10-24T14:47:39.078Z,18.50
2022-10-24T14:50:29.316Z,18.20
2022-10-24T14:52:57.518Z,18.00
2022-10-24T14:55:25.658Z,17.90
2022-10-24T14:57:54.425Z,17.80
2022-10-24T15:00:22.931Z,17.70
2022-10-24T15:02:53.800Z,17.60
2022-10-24T15:05:23.929Z,17.60
2022-10-24T15:08:22.155Z,17.50
2022-10-24T15:11:13.586Z,17.50
2022-10-24T15:14:05.218Z,17.40
2022-10-24T15:16:37.857Z,17.40
2022-10-24T15:19:12.821Z,17.40
2022-10-24T15:21:45.188Z,17.30
2022-10-24T15:24:24.979Z,17.20
2022-10-24T15:26:52.390Z,17.20
2022-10-24T15:29:23.342Z,17.10
2022-10-24T15:31:53.426Z,17.10
2022-10-24T15:34:24.197Z,17.10
2022-10-24T15:36:52.731Z,17.00
2022-10-24T15:39:24.929Z,16.90
2022-10-24T15:41:55.348Z,16.90
2022-10-24T15:44:28.363Z,16.90
2022-10-24T15:46:58.344Z,16.80
2022-10-24T15:49:29.125Z,16.70
2022-10-24T15:51:56.065Z,16.60
2022-10-24T15:54:27.204Z,16.60
2022-10-24T15:56:54.780Z,16.50
2022-10-24T15:59:26.646Z,16.40
2022-10-24T16:02:00.611Z,16.40
2022-10-24T16:04:32.789Z,16.40
2022-10-24T16:07:00.154Z,16.40
2022-10-24T16:09:27.908Z,16.40
2022-10-24T16:11:57.886Z,16.30
2022-10-24T16:14:30.426Z,16.30
2022-10-24T16:16:59.444Z,16.30
2022-10-24T16:19:28.498Z,16.30
2022-10-24T16:22:00.771Z,16.30
2022-10-24T16:24:33.921Z,16.20
2022-10-24T16:27:00.908Z,16.10
2022-10-24T16:29:31.054Z,16.10
2022-10-24T16:32:00.000Z,16.00
2022-10-24T16:34:30.516Z,16.00
2022-10-24T16:36:58.517Z,15.90
2022-10-24T16:39:26.481Z,15.80
2022-10-24T16:41:55.312Z,15.80
2022-10-24T16:44:27.265Z,15.70
2022-10-24T16:46:54.248Z,15.60
2022-10-24T16:49:24.595Z,15.60
2022-10-24T16:51:51.488Z,15.50
2022-10-24T16:54:19.485Z,15.50
2022-10-24T16:56:49.792Z,15.40
2022-10-24T16:59:21.463Z,15.40
2022-10-24T17:01:50.266Z,15.30
2022-10-24T17:04:20.339Z,15.30
2022-10-24T17:06:49.279Z,15.30
2022-10-24T17:09:19.267Z,15.20
2022-10-24T17:11:48.192Z,15.20
2022-10-24T17:14:18.288Z,15.20
2022-10-24T17:16:46.238Z,15.10
2022-10-24T17:19:16.736Z,15.10
2022-10-24T17:21:48.942Z,15.10
2022-10-24T17:24:20.429Z,15.10
2022-10-24T17:26:50.271Z,15.00
2022-10-24T17:29:31.388Z,15.00
2022-10-24T17:32:01.513Z,15.00
2022-10-24T17:34:30.645Z,14.90
2022-10-24T17:37:10.626Z,14.90
2022-10-24T17:39:45.849Z,14.90
2022-10-24T17:42:16.515Z,14.90
2022-10-24T17:44:47.771Z,14.80
2022-10-24T17:47:17.960Z,14.80
2022-10-24T17:49:45.621Z,14.70
2022-10-24T17:52:16.494Z,14.70
2022-10-24T17:54:46.581Z,14.70
2022-10-24T17:57:16.558Z,14.60
2022-10-24T17:59:49.667Z,14.60
2022-10-24T18:02:20.401Z,14.60
2022-10-24T18:04:51.716Z,14.60
2022-10-24T18:07:18.576Z,14.60
2022-10-24T18:09:45.420Z,14.60
2022-10-24T18:12:12.376Z,14.60
2022-10-24T18:14:39.236Z,14.50
2022-10-24T18:17:07.108Z,14.60
2022-10-24T18:19:34.954Z,14.50
2022-10-24T18:22:01.827Z,14.60
2022-10-24T18:24:28.733Z,14.60
2022-10-24T18:26:55.629Z,14.60
2022-10-24T18:29:22.477Z,14.60
2022-10-24T18:31:49.644Z,14.60
2022-10-24T18:34:16.503Z,14.50
2022-10-24T18:36:43.347Z,14.60
2022-10-24T18:39:10.474Z,14.60
2022-10-24T18:41:48.096Z,14.60
2022-10-24T18:44:23.319Z,14.60
2022-10-24T18:46:52.161Z,14.60
2022-10-24T18:49:19.491Z,14.60
2022-10-24T18:52:11.242Z,14.60
2022-10-24T18:54:45.204Z,14.60
2022-10-24T18:57:22.909Z,14.60
2022-10-24T18:59:50.456Z,14.60
2022-10-24T19:02:36.118Z,14.60
2022-10-24T19:05:09.299Z,14.60
2022-10-24T19:07:36.339Z,14.60
2022-10-24T19:10:03.475Z,14.60
2022-10-24T19:12:30.401Z,14.60
2022-10-24T19:14:57.476Z,14.60
2022-10-24T19:17:24.391Z,14.60
2022-10-24T19:19:51.546Z,14.60
2022-10-24T19:22:18.575Z,14.60
2022-10-24T19:24:45.444Z,14.60
2022-10-24T19:27:12.288Z,14.50
2022-10-24T19:29:39.165Z,14.60
2022-10-24T19:32:06.085Z,14.50
2022-10-24T19:34:34.908Z,14.60
2022-10-24T19:37:01.790Z,14.60
2022-10-24T19:39:33.745Z,14.60
2022-10-24T19:42:01.024Z,14.60
2022-10-24T19:44:27.972Z,14.60
2022-10-24T19:46:54.808Z,14.70
2022-10-24T19:49:21.632Z,14.70
2022-10-24T19:51:48.867Z,14.70
2022-10-24T19:54:15.839Z,14.70
2022-10-24T19:56:43.685Z,14.70
2022-10-24T19:59:12.368Z,14.70
2022-10-24T20:01:39.446Z,14.70
2022-10-24T20:04:06.703Z,14.70
2022-10-24T20:06:33.802Z,14.70
2022-10-24T20:09:00.760Z,14.70
2022-10-24T20:11:27.733Z,14.70
2022-10-24T20:13:54.678Z,14.70
2022-10-24T20:16:21.882Z,14.70
2022-10-24T20:18:49.043Z,14.70
2022-10-24T20:21:18.540Z,14.70
2022-10-24T20:23:49.208Z,14.70
2022-10-24T20:26:20.216Z,14.60
2022-10-24T20:28:48.580Z,14.60
2022-10-24T20:31:22.819Z,14.60
2022-10-24T20:33:50.011Z,14.60
2022-10-24T20:36:17.566Z,14.60
2022-10-24T20:38:44.650Z,14.60
2022-10-24T20:41:11.687Z,14.60
2022-10-24T20:43:38.731Z,14.60
2022-10-24T20:46:06.728Z,14.60
2022-10-24T20:48:35.099Z,14.60
2022-10-24T20:51:10.785Z,14.50
2022-10-24T20:53:38.793Z,14.50
2022-10-24T20:56:12.095Z,14.50
2022-10-24T20:58:40.882Z,14.50
2022-10-24T21:01:10.510Z,14.50
2022-10-24T21:03:37.972Z,14.50
2022-10-24T21:06:13.732Z,14.50
2022-10-24T21:08:41.848Z,14.50
2022-10-24T21:11:13.244Z,14.50
2022-10-24T21:13:40.197Z,14.50
2022-10-24T21:16:07.304Z,14.40
2022-10-24T21:18:35.376Z,14.40
2022-10-24T21:21:10.352Z,14.50
2022-10-24T21:23:37.556Z,14.40
2022-10-24T21:26:10.294Z,14.40
2022-10-24T21:28:37.704Z,14.40
2022-10-24T21:31:16.681Z,14.40
2022-10-24T21:33:44.038Z,14.40
2022-10-24T21:36:20.173Z,14.30
2022-10-24T21:38:50.724Z,14.30
2022-10-24T21:41:19.455Z,14.30
2022-10-24T21:43:47.202Z,14.30
2022-10-24T21:46:18.717Z,14.20
2022-10-24T21:48:46.676Z,14.30
2022-10-24T21:51:34.932Z,14.20
2022-10-24T21:54:04.696Z,14.20
2022-10-24T21:56:35.309Z,14.20
2022-10-24T21:59:07.131Z,14.20
2022-10-24T22:01:37.392Z,14.20
2022-10-24T22:04:06.001Z,14.20
2022-10-24T22:06:34.520Z,14.20
2022-10-24T22:09:01.777Z,14.20
2022-10-24T22:11:30.999Z,14.20
2022-10-24T22:13:58.730Z,14.20
2022-10-24T22:16:28.599Z,14.20
2022-10-24T22:18:55.757Z,14.20
2022-10-24T22:21:27.088Z,14.20
2022-10-24T22:23:59.190Z,14.20
2022-10-24T22:26:27.097Z,14.20
2022-10-24T22:28:55.962Z,14.10
2022-10-24T22:31:24.869Z,14.10
2022-10-24T22:33:53.354Z,14.10
2022-10-24T22:36:36.967Z,14.10
2022-10-24T22:39:05.359Z,14.10
2022-10-24T22:41:32.582Z,14.10
2022-10-24T22:43:59.688Z,14.20
2022-10-24T22:47:00.468Z,14.20
2022-10-24T22:49:36.287Z,14.20
2022-10-24T22:52:03.474Z,14.20
2022-10-24T22:54:35.192Z,14.20
2022-10-24T22:57:03.215Z,14.20
2022-10-24T22:59:30.570Z,14.20
2022-10-24T23:02:40.993Z,14.20
2022-10-24T23:05:11.274Z,14.20
2022-10-24T23:07:43.879Z,14.20
2022-10-24T23:10:14.019Z,14.20
2022-10-24T23:12:41.460Z,14.20
2022-10-24T23:15:13.317Z,14.10
2022-10-24T23:17:40.393Z,14.10
2022-10-24T23:20:39.883Z,14.20
2022-10-24T23:23:24.289Z,14.10
2022-10-24T23:26:03.781Z,14.10
2022-10-24T23:28:41.282Z,14.10
2022-10-24T23:31:08.516Z,14.10
2022-10-24T23:33:35.679Z,14.20
2022-10-24T23:36:02.810Z,14.20
2022-10-24T23:38:30.100Z,14.20
2022-10-24T23:40:57.217Z,14.20
2022-10-24T23:43:24.431Z,14.20
2022-10-24T23:46:23.134Z,14.20
2022-10-24T23:48:58.900Z,14.20
2022-10-24T23:51:40.936Z,14.20
2022-10-24T23:54:12.309Z,14.20
2022-10-24T23:56:39.741Z,14.20
2022-10-24T23:59:06.649Z,14.30
